createdAt,value
2023-04-02T00:00:37.809Z,2.97
2023-04-02T00:03:12.228Z,3.30
2023-04-02T00:05:51.244Z,2.72
2023-04-02T00:08:49.977Z,2.97
2023-04-02T00:11:38.108Z,2.92
2023-04-02T00:14:22.826Z,2.72
2023-04-02T00:17:01.057Z,2.55
2023-04-02T00:19:42.334Z,2.63
2023-04-02T00:22:21.263Z,2.70
2023-04-02T00:24:57.523Z,2.55
2023-04-02T00:27:32.790Z,2.45
2023-04-02T00:30:08.374Z,2.47
2023-04-02T00:32:41.384Z,2.95
2023-04-02T00:37:55.158Z,2.53
2023-04-02T00:40:30.224Z,2.88
2023-04-02T00:43:05.013Z,2.97
2023-04-02T00:45:38.059Z,3.17
2023-04-02T00:48:37.180Z,2.60
2023-04-02T00:51:22.307Z,2.97
2023-04-02T00:53:54.519Z,2.90
2023-04-02T00:56:37.698Z,2.85
2023-04-02T00:59:25.982Z,2.65
2023-04-02T01:02:02.236Z,2.92
2023-04-02T01:04:37.525Z,2.97
2023-04-02T01:07:11.275Z,2.83
2023-04-02T01:09:51.912Z,3.03
2023-04-02T01:12:45.826Z,2.90
2023-04-02T01:15:41.176Z,2.90
2023-04-02T01:18:20.237Z,3.35
2023-04-02T01:21:16.663Z,2.50
2023-04-02T01:23:54.958Z,2.67
2023-04-02T01:26:32.097Z,2.70
2023-04-02T01:29:14.868Z,2.70
2023-04-02T01:31:46.668Z,2.60
2023-04-02T01:34:19.158Z,2.80
2023-04-02T01:37:27.932Z,2.90
2023-04-02T01:40:27.865Z,2.95
2023-04-02T01:43:31.071Z,3.08
2023-04-02T01:46:34.079Z,2.75
2023-04-02T01:49:15.945Z,2.80
2023-04-02T01:51:52.688Z,2.78
2023-04-02T01:54:29.405Z,2.92
2023-04-02T01:57:02.172Z,3.00
2023-04-02T01:59:34.936Z,2.80
2023-04-02T02:02:15.241Z,3.00
2023-04-02T02:04:52.018Z,2.88
2023-04-02T02:07:23.659Z,3.10
2023-04-02T02:09:56.773Z,2.88
2023-04-02T02:12:26.627Z,2.97
2023-04-02T02:14:55.582Z,3.20
2023-04-02T02:17:35.013Z,2.72
2023-04-02T02:20:09.832Z,2.58
2023-04-02T02:22:43.648Z,2.97
2023-04-02T02:25:26.234Z,2.50
2023-04-02T02:28:07.773Z,2.95
2023-04-02T02:30:48.207Z,3.08
2023-04-02T02:33:28.055Z,2.80
2023-04-02T02:36:13.557Z,3.05
2023-04-02T02:39:11.714Z,2.83
2023-04-02T02:42:19.313Z,2.80
2023-04-02T02:44:55.355Z,2.40
2023-04-02T02:47:30.218Z,2.65
2023-04-02T02:50:07.157Z,2.90
2023-04-02T02:52:38.597Z,2.85
2023-04-02T02:55:17.045Z,2.50
2023-04-02T02:58:17.770Z,3.03
2023-04-02T03:00:59.718Z,2.70
2023-04-02T03:03:33.180Z,2.35
2023-04-02T03:06:12.211Z,2.80
2023-04-02T03:09:13.982Z,2.47
2023-04-02T03:12:25.249Z,2.33
2023-04-02T03:15:31.006Z,2.70
2023-04-02T03:18:18.258Z,2.80
2023-04-02T03:20:56.937Z,2.47
2023-04-02T03:23:36.974Z,2.83
2023-04-02T03:26:17.107Z,2.72
2023-04-02T03:29:35.256Z,2.92
2023-04-02T03:32:19.741Z,2.47
2023-04-02T03:35:03.675Z,2.38
2023-04-02T03:37:45.162Z,2.28
2023-04-02T03:40:25.517Z,2.63
2023-04-02T03:43:14.964Z,2.85
2023-04-02T03:45:51.032Z,3.00
2023-04-02T03:48:40.078Z,2.53
2023-04-02T03:51:31.345Z,2.72
2023-04-02T03:54:04.068Z,2.38
2023-04-02T03:56:40.834Z,2.78
2023-04-02T03:59:26.366Z,2.80
2023-04-02T04:02:34.292Z,2.50
2023-04-02T04:05:08.349Z,2.78
2023-04-02T04:07:47.292Z,2.38
2023-04-02T04:10:26.356Z,2.35
2023-04-02T04:13:03.359Z,2.65
2023-04-02T04:15:59.465Z,2.30
2023-04-02T04:18:44.144Z,2.88
2023-04-02T04:21:45.206Z,2.38
2023-04-02T04:24:26.068Z,2.35
2023-04-02T04:27:43.191Z,2.30
2023-04-02T04:30:23.533Z,2.60
2023-04-02T04:32:58.841Z,2.50
2023-04-02T04:35:35.810Z,2.70
2023-04-02T04:38:18.745Z,2.58
2023-04-02T04:40:56.651Z,2.55
2023-04-02T04:44:02.522Z,2.05
2023-04-02T04:46:50.146Z,2.33
2023-04-02T04:49:46.970Z,2.17
2023-04-02T04:52:35.109Z,2.28
2023-04-02T04:55:23.020Z,2.25
2023-04-02T04:57:57.333Z,2.47
2023-04-02T05:00:39.897Z,2.65
2023-04-02T05:03:39.239Z,2.72
2023-04-02T05:06:38.235Z,2.65
2023-04-02T05:09:32.594Z,2.35
2023-04-02T05:12:25.925Z,2.55
2023-04-02T05:15:07.113Z,2.33
2023-04-02T05:18:14.845Z,2.58
2023-04-02T05:21:05.738Z,2.40
2023-04-02T05:23:49.913Z,2.63
2023-04-02T05:26:40.418Z,2.47
2023-04-02T05:29:23.012Z,2.50
2023-04-02T05:32:05.104Z,2.70
2023-04-02T05:34:38.996Z,2.38
2023-04-02T05:37:18.894Z,3.20
2023-04-02T05:39:56.194Z,2.38
2023-04-02T05:42:38.300Z,2.42
2023-04-02T05:45:37.281Z,2.28
2023-04-02T05:48:22.519Z,3.13
2023-04-02T05:50:59.318Z,2.85
2023-04-02T05:53:59.545Z,2.10
2023-04-02T05:56:47.739Z,2.20
2023-04-02T05:59:23.297Z,2.90
2023-04-02T06:02:08.711Z,2.30
2023-04-02T06:04:51.941Z,1.85
2023-04-02T06:07:34.119Z,1.90
2023-04-02T06:10:26.304Z,2.22
2023-04-02T06:13:04.067Z,1.90
2023-04-02T06:15:41.256Z,1.90
2023-04-02T06:18:28.111Z,1.73
2023-04-02T06:20:59.002Z,2.10
2023-04-02T06:23:38.928Z,2.00
2023-04-02T06:26:36.568Z,1.95
2023-04-02T06:29:19.300Z,2.17
2023-04-02T06:31:57.210Z,2.22
2023-04-02T06:34:33.177Z,2.25
2023-04-02T06:37:36.429Z,2.08
2023-04-02T06:40:58.908Z,1.75
2023-04-02T06:43:48.720Z,2.42
2023-04-02T06:46:45.614Z,2.42
2023-04-02T06:49:47.184Z,2.50
2023-04-02T06:52:30.992Z,2.40
2023-04-02T06:55:05.664Z,2.65
2023-04-02T06:57:38.088Z,1.90
2023-04-02T07:00:18.195Z,2.10
2023-04-02T07:02:48.320Z,2.65
2023-04-02T07:05:22.087Z,2.30
2023-04-02T07:07:57.086Z,2.53
2023-04-02T07:10:31.398Z,2.30
2023-04-02T07:13:03.076Z,2.40
2023-04-02T07:15:36.414Z,2.25
2023-04-02T07:18:06.201Z,2.65
2023-04-02T07:20:42.250Z,2.45
2023-04-02T07:23:16.949Z,2.90
2023-04-02T07:25:53.004Z,2.22
2023-04-02T07:28:26.404Z,3.13
2023-04-02T07:30:58.105Z,2.70
2023-04-02T07:33:33.161Z,2.28
2023-04-02T07:36:02.687Z,1.85
2023-04-02T07:38:32.026Z,2.20
2023-04-02T07:41:08.664Z,2.70
2023-04-02T07:43:39.773Z,2.67
2023-04-02T07:46:15.974Z,2.35
2023-04-02T07:48:51.263Z,2.10
2023-04-02T07:51:25.661Z,2.70
2023-04-02T07:53:57.981Z,2.30
2023-04-02T07:56:27.939Z,2.65
2023-04-02T07:58:59.690Z,2.20
2023-04-02T08:01:37.421Z,2.13
2023-04-02T08:04:23.247Z,2.67
2023-04-02T08:06:53.476Z,3.00
2023-04-02T08:09:23.231Z,2.88
2023-04-02T08:11:53.597Z,2.35
2023-04-02T08:14:23.239Z,1.95
2023-04-02T08:16:56.454Z,2.60
2023-04-02T08:19:41.559Z,2.15
2023-04-02T08:22:24.765Z,2.40
2023-04-02T08:24:58.047Z,2.40
2023-04-02T08:27:30.130Z,2.97
2023-04-02T08:30:05.130Z,2.60
2023-04-02T08:32:35.152Z,2.22
2023-04-02T08:35:07.934Z,2.28
2023-04-02T08:37:42.220Z,2.90
2023-04-02T08:40:26.585Z,2.40
2023-04-02T08:43:22.452Z,2.88
2023-04-02T08:46:05.289Z,2.85
2023-04-02T08:48:40.829Z,2.42
2023-04-02T08:51:25.038Z,2.97
2023-04-02T08:54:04.437Z,3.08
2023-04-02T08:57:34.848Z,3.35
2023-04-02T09:00:38.078Z,3.65
2023-04-02T09:03:32.119Z,3.33
2023-04-02T09:06:03.353Z,2.55
2023-04-02T09:08:34.117Z,3.70
2023-04-02T09:11:52.311Z,3.22
2023-04-02T09:14:43.476Z,3.60
2023-04-02T09:17:26.952Z,4.10
2023-04-02T09:20:03.943Z,3.67
2023-04-02T09:22:37.166Z,2.97
2023-04-02T09:25:18.524Z,2.58
2023-04-02T09:27:54.120Z,3.30
2023-04-02T09:30:49.130Z,2.83
2023-04-02T09:33:20.511Z,3.25
2023-04-02T09:35:52.460Z,2.95
2023-04-02T09:38:36.247Z,2.70
2023-04-02T09:41:21.520Z,2.50
2023-04-02T09:43:51.121Z,2.83
2023-04-02T09:46:28.686Z,2.60
2023-04-02T09:49:03.484Z,2.25
2023-04-02T09:51:35.533Z,2.58
2023-04-02T09:54:15.318Z,2.25
2023-04-02T09:57:06.457Z,2.63
2023-04-02T09:59:38.106Z,2.90
2023-04-02T10:02:27.271Z,2.78
2023-04-02T10:04:56.638Z,2.20
2023-04-02T10:07:37.282Z,2.38
2023-04-02T10:10:27.624Z,2.80
2023-04-02T10:13:12.963Z,2.30
2023-04-02T10:19:58.672Z,2.33
2023-04-02T10:22:36.124Z,2.35
2023-04-02T10:25:16.201Z,2.55
2023-04-02T10:31:04.150Z,2.28
2023-04-02T10:33:39.113Z,2.60
2023-04-02T10:36:17.344Z,2.20
2023-04-02T10:39:02.655Z,2.13
2023-04-02T10:42:03.207Z,2.10
2023-04-02T10:44:47.959Z,2.78
2023-04-02T10:47:45.758Z,2.85
2023-04-02T10:50:30.774Z,3.47
2023-04-02T10:53:20.915Z,2.17
2023-04-02T10:55:57.066Z,2.22
2023-04-02T10:58:32.761Z,2.40
2023-04-02T11:01:18.490Z,2.35
2023-04-02T11:04:07.638Z,2.17
2023-04-02T11:06:49.804Z,2.30
2023-04-02T11:09:30.930Z,2.47
2023-04-02T11:12:04.559Z,2.33
2023-04-02T11:14:37.267Z,2.28
2023-04-02T11:17:13.309Z,2.00
2023-04-02T11:19:44.470Z,1.83
2023-04-02T11:22:26.588Z,1.77
2023-04-02T11:27:35.221Z,2.05
2023-04-02T11:32:52.252Z,2.55
2023-04-02T11:35:40.719Z,2.47
2023-04-02T11:40:59.085Z,2.03
2023-04-02T11:43:38.674Z,2.33
2023-04-02T11:46:27.522Z,2.35
2023-04-02T11:49:36.600Z,2.70
2023-04-02T11:52:42.491Z,2.35
2023-04-02T11:55:18.737Z,2.38
2023-04-02T12:01:01.536Z,2.00
2023-04-02T12:03:52.918Z,1.80
2023-04-02T12:06:48.763Z,1.67
2023-04-02T12:09:27.339Z,1.75
2023-04-02T12:12:02.767Z,2.33
2023-04-02T12:14:47.211Z,1.90
2023-04-02T12:17:40.317Z,2.17
2023-04-02T12:20:10.749Z,2.05
2023-04-02T12:22:48.033Z,2.10
2023-04-02T12:25:27.567Z,2.00
2023-04-02T12:28:10.671Z,2.05
2023-04-02T12:30:40.316Z,1.75
2023-04-02T12:33:34.284Z,2.30
2023-04-02T12:36:23.058Z,2.33
2023-04-02T12:38:56.603Z,2.10
2023-04-02T12:41:33.947Z,1.88
2023-04-02T12:44:15.999Z,1.90
2023-04-02T12:46:46.997Z,2.90
2023-04-02T12:49:34.714Z,1.40
2023-04-02T12:52:13.696Z,1.58
2023-04-02T12:54:49.764Z,1.90
2023-04-02T12:57:29.541Z,1.60
2023-04-02T13:00:24.991Z,2.13
2023-04-02T13:03:03.413Z,1.90
2023-04-02T13:08:29.027Z,1.95
2023-04-02T13:11:05.222Z,2.15
2023-04-02T13:13:41.642Z,2.35
2023-04-02T13:16:18.811Z,2.40
2023-04-02T13:18:51.818Z,2.05
2023-04-02T13:21:21.848Z,4.18
2023-04-02T13:23:50.954Z,2.22
2023-04-02T13:26:28.410Z,2.00
2023-04-02T13:29:05.459Z,2.00
2023-04-02T13:31:36.788Z,2.70
2023-04-02T13:34:09.044Z,2.40
2023-04-02T13:39:11.614Z,2.40
2023-04-02T13:41:46.467Z,1.95
2023-04-02T13:44:29.659Z,2.60
2023-04-02T13:47:00.708Z,2.85
2023-04-02T13:49:32.998Z,2.17
2023-04-02T13:52:11.609Z,3.22
2023-04-02T13:54:58.948Z,1.90
2023-04-02T13:57:31.643Z,2.15
2023-04-02T14:00:04.544Z,2.28
2023-04-02T14:02:44.361Z,2.80
2023-04-02T14:05:20.364Z,1.90
2023-04-02T14:08:07.376Z,2.20
2023-04-02T14:10:52.667Z,3.13
2023-04-02T14:13:41.336Z,2.00
2023-04-02T14:16:36.030Z,2.40
2023-04-02T14:19:42.961Z,1.75
2023-04-02T14:22:37.065Z,2.80
2023-04-02T14:25:22.881Z,2.33
2023-04-02T14:28:04.678Z,3.60
2023-04-02T14:30:59.165Z,3.28
2023-04-02T14:34:03.406Z,2.50
2023-04-02T14:36:53.801Z,2.03
2023-04-02T14:39:41.099Z,2.13
2023-04-02T14:42:42.815Z,2.25
2023-04-02T14:45:31.338Z,2.13
2023-04-02T14:48:26.600Z,2.58
2023-04-02T14:51:14.755Z,2.90
2023-04-02T14:54:17.905Z,2.75
2023-04-02T14:56:55.399Z,2.80
2023-04-02T14:59:45.911Z,2.70
2023-04-02T15:02:30.868Z,2.38
2023-04-02T15:05:06.693Z,2.45
2023-04-02T15:08:00.000Z,2.55
2023-04-02T15:10:35.067Z,2.30
2023-04-02T15:13:12.251Z,2.63
2023-04-02T15:15:57.044Z,2.28
2023-04-02T15:18:27.244Z,2.72
2023-04-02T15:21:57.144Z,2.10
2023-04-02T15:24:57.187Z,2.17
2023-04-02T15:27:48.283Z,2.65
2023-04-02T15:30:28.317Z,2.53
2023-04-02T15:33:37.275Z,2.17
2023-04-02T15:36:21.986Z,2.67
2023-04-02T15:39:02.343Z,2.58
2023-04-02T15:41:47.306Z,2.88
2023-04-02T15:44:19.654Z,2.20
2023-04-02T15:47:08.098Z,2.58
2023-04-02T15:49:47.642Z,2.63
2023-04-02T15:52:30.917Z,2.33
2023-04-02T15:55:00.454Z,2.85
2023-04-02T15:57:34.798Z,2.55
2023-04-02T16:00:31.102Z,2.58
2023-04-02T16:03:37.930Z,2.22
2023-04-02T16:06:40.713Z,2.25
2023-04-02T16:09:27.721Z,2.47
2023-04-02T16:12:14.778Z,2.40
2023-04-02T16:14:48.639Z,2.20
2023-04-02T16:17:28.919Z,4.03
2023-04-02T16:20:15.234Z,2.30
2023-04-02T16:23:00.544Z,2.53
2023-04-02T16:25:41.140Z,2.20
2023-04-02T16:28:36.495Z,2.58
2023-04-02T16:31:12.141Z,2.63
2023-04-02T16:33:49.690Z,2.72
2023-04-02T16:36:48.042Z,2.50
2023-04-02T16:39:42.476Z,2.80
2023-04-02T16:42:55.975Z,3.28
2023-04-02T16:45:35.359Z,2.28
2023-04-02T16:48:39.098Z,2.97
2023-04-02T16:51:30.033Z,2.90
2023-04-02T16:54:12.826Z,3.00
2023-04-02T16:57:27.737Z,2.50
2023-04-02T17:00:18.466Z,2.92
2023-04-02T17:03:03.251Z,3.15
2023-04-02T17:06:05.540Z,3.03
2023-04-02T17:08:54.413Z,3.40
2023-04-02T17:11:49.457Z,3.13
2023-04-02T17:14:21.725Z,2.90
2023-04-02T17:16:56.487Z,3.95
2023-04-02T17:19:28.185Z,2.80
2023-04-02T17:22:04.562Z,2.90
2023-04-02T17:24:42.447Z,2.50
2023-04-02T17:27:33.092Z,2.90
2023-04-02T17:30:08.723Z,3.00
2023-04-02T17:32:38.301Z,2.50
2023-04-02T17:35:25.844Z,2.67
2023-04-02T17:38:32.534Z,2.42
2023-04-02T17:41:25.459Z,2.97
2023-04-02T17:43:55.344Z,3.13
2023-04-02T17:46:36.703Z,2.78
2023-04-02T17:49:20.669Z,3.25
2023-04-02T17:52:37.041Z,3.35
2023-04-02T17:55:48.713Z,2.90
2023-04-02T17:58:50.320Z,3.80
2023-04-02T18:01:34.098Z,3.05
2023-04-02T18:04:22.671Z,3.25
2023-04-02T18:07:31.841Z,3.03
2023-04-02T18:10:22.479Z,3.33
2023-04-02T18:13:11.259Z,3.30
2023-04-02T18:15:57.618Z,3.00
2023-04-02T18:19:06.651Z,3.35
2023-04-02T18:22:01.000Z,3.72
2023-04-02T18:24:47.146Z,3.15
2023-04-02T18:27:52.379Z,3.28
2023-04-02T18:30:50.952Z,2.83
2023-04-02T18:33:55.714Z,2.60
2023-04-02T18:36:40.868Z,2.97
2023-04-02T18:39:27.134Z,3.35
2023-04-02T18:42:36.662Z,3.40
2023-04-02T18:45:16.094Z,3.10
2023-04-02T18:47:56.599Z,3.38
2023-04-02T18:50:30.752Z,3.20
2023-04-02T18:53:18.539Z,3.58
2023-04-02T18:56:00.594Z,3.25
2023-04-02T18:58:53.273Z,3.30
2023-04-02T19:01:28.853Z,3.40
2023-04-02T19:04:07.855Z,3.45
2023-04-02T19:06:50.479Z,3.47
2023-04-02T19:09:25.449Z,3.67
2023-04-02T19:11:56.586Z,3.53
2023-04-02T19:14:27.529Z,3.25
2023-04-02T19:17:07.129Z,3.33
2023-04-02T19:19:56.040Z,3.78
2023-04-02T19:22:58.742Z,3.55
2023-04-02T19:25:56.661Z,3.03
2023-04-02T19:28:34.523Z,3.40
2023-04-02T19:31:25.038Z,3.38
2023-04-02T19:34:23.932Z,3.75
2023-04-02T19:37:07.209Z,3.53
2023-04-02T19:40:19.042Z,3.33
2023-04-02T19:42:56.787Z,3.70
2023-04-02T19:45:43.990Z,3.42
2023-04-02T19:48:23.181Z,3.75
2023-04-02T19:50:54.472Z,3.95
2023-04-02T19:53:24.672Z,3.85
2023-04-02T19:55:58.072Z,3.97
2023-04-02T19:58:33.355Z,4.38
2023-04-02T20:01:03.857Z,4.15
2023-04-02T20:03:38.101Z,4.50
2023-04-02T20:06:12.269Z,4.43
2023-04-02T20:08:50.235Z,4.50
2023-04-02T20:11:23.197Z,3.72
2023-04-02T20:13:55.950Z,4.20
2023-04-02T20:16:28.025Z,4.50
2023-04-02T20:18:58.494Z,4.38
2023-04-02T20:21:28.518Z,5.28
2023-04-02T20:23:57.704Z,4.95
2023-04-02T20:26:28.066Z,4.22
2023-04-02T20:29:02.248Z,4.55
2023-04-02T20:31:38.352Z,4.20
2023-04-02T20:34:13.531Z,4.97
2023-04-02T20:36:46.539Z,4.78
2023-04-02T20:39:19.889Z,4.80
2023-04-02T20:41:51.462Z,5.57
2023-04-02T20:44:20.720Z,4.70
2023-04-02T20:46:53.288Z,4.68
2023-04-02T20:49:28.460Z,4.75
2023-04-02T20:51:59.206Z,4.30
2023-04-02T20:54:34.718Z,4.90
2023-04-02T20:57:04.739Z,4.63
2023-04-02T20:59:34.150Z,4.63
2023-04-02T21:02:05.600Z,5.13
2023-04-02T21:04:34.720Z,5.43
2023-04-02T21:07:09.229Z,5.05
2023-04-02T21:09:46.539Z,4.78
2023-04-02T21:12:19.217Z,5.15
2023-04-02T21:14:56.039Z,4.75
2023-04-02T21:17:29.833Z,4.32
2023-04-02T21:20:04.001Z,4.80
2023-04-02T21:22:36.291Z,4.63
2023-04-02T21:25:06.037Z,4.93
2023-04-02T21:27:35.594Z,5.32
2023-04-02T21:30:07.977Z,4.82
2023-04-02T21:32:43.021Z,6.00
2023-04-02T21:35:12.449Z,4.68
2023-04-02T21:37:47.428Z,5.22
2023-04-02T21:40:19.275Z,4.55
2023-04-02T21:42:55.315Z,5.00
2023-04-02T21:45:29.798Z,5.65
2023-04-02T21:47:59.569Z,4.72
2023-04-02T21:50:33.982Z,5.40
2023-04-02T21:53:09.733Z,4.53
2023-04-02T21:55:43.542Z,4.50
2023-04-02T21:58:17.627Z,4.90
2023-04-02T22:00:46.713Z,5.63
2023-04-02T22:03:25.389Z,5.07
2023-04-02T22:06:08.229Z,4.18
2023-04-02T22:08:41.972Z,5.10
2023-04-02T22:11:17.410Z,5.10
2023-04-02T22:13:50.670Z,4.28
2023-04-02T22:16:22.901Z,4.68
2023-04-02T22:18:57.186Z,4.63
2023-04-02T22:21:30.215Z,5.18
2023-04-02T22:24:10.183Z,4.07
2023-04-02T22:26:40.807Z,5.43
2023-04-02T22:29:17.697Z,4.70
2023-04-02T22:31:49.016Z,4.43
2023-04-02T22:34:19.662Z,4.85
2023-04-02T22:36:51.640Z,4.63
2023-04-02T22:39:26.179Z,4.40
2023-04-02T22:41:58.128Z,4.53
2023-04-02T22:44:32.731Z,4.38
2023-04-02T22:47:07.231Z,4.75
2023-04-02T22:49:41.311Z,4.38
2023-04-02T22:52:13.233Z,4.50
2023-04-02T22:54:43.554Z,4.50
2023-04-02T22:57:14.193Z,4.65
2023-04-02T22:59:48.585Z,4.10
2023-04-02T23:02:23.383Z,4.45
2023-04-02T23:04:56.067Z,5.13
2023-04-02T23:07:25.542Z,4.47
2023-04-02T23:09:58.962Z,3.80
2023-04-02T23:12:32.371Z,4.72
2023-04-02T23:15:06.069Z,4.57
2023-04-02T23:17:40.394Z,4.25
2023-04-02T23:20:13.122Z,4.63
2023-04-02T23:25:20.182Z,4.10
2023-04-02T23:27:56.468Z,4.72
2023-04-02T23:30:34.647Z,4.13
2023-04-02T23:33:09.623Z,3.75
2023-04-02T23:35:39.151Z,4.40
2023-04-02T23:38:13.427Z,3.88
2023-04-02T23:40:47.222Z,3.60
2023-04-02T23:43:21.726Z,4.00
2023-04-02T23:45:52.464Z,3.13
2023-04-02T23:48:28.019Z,3.75
2023-04-02T23:50:59.716Z,3.90
2023-04-02T23:53:34.466Z,3.28
2023-04-02T23:56:06.249Z,3.70
2023-04-02T23:58:42.517Z,3.38
